Time;durP1;ratioP1;P1;durP2;ratioP2;P2;SDS_P1;SDS_P2;PMS_P1;PMS_P2;Temp;Humidity;BMP_temperature;BMP_pressure;BME280_temperature;BME280_humidity;BME280_pressure;Samples;Min_cycle;Max_cycle;Signal;HPM_P1;HPM_P2
2021/12/09 00:00:37;;;;;;;17.77;8.10;;;;;;;;;;4970324;28;20034;-82
2021/12/09 00:03:06;;;;;;;21.83;8.15;;;;;;;;;;4972582;28;20022;-81
2021/12/09 00:05:33;;;;;;;16.88;7.40;;;;;;;;;;4971152;28;20027;-82
2021/12/09 00:07:59;;;;;;;14.90;6.82;;;;;;;;;;4970764;28;20525;-82
2021/12/09 00:10:25;;;;;;;14.60;6.50;;;;;;;;;;4972626;28;20067;-81
2021/12/09 00:12:51;;;;;;;18.77;7.35;;;;;;;;;;4970719;28;20489;-81
2021/12/09 00:15:17;;;;;;;19.65;7.85;;;;;;;;;;4972075;28;20082;-81
2021/12/09 00:17:43;;;;;;;19.48;7.32;;;;;;;;;;4971942;28;20031;-82
2021/12/09 00:20:10;;;;;;;16.30;7.20;;;;;;;;;;4970699;28;20109;-81
2021/12/09 00:22:36;;;;;;;19.25;7.18;;;;;;;;;;4972212;28;20378;-82
2021/12/09 00:25:02;;;;;;;22.08;7.50;;;;;;;;;;4971327;28;20046;-82
2021/12/09 00:27:28;;;;;;;19.17;7.75;;;;;;;;;;4970337;28;20192;-81
2021/12/09 00:29:54;;;;;;;19.35;7.38;;;;;;;;;;4970485;28;20539;-81
2021/12/09 00:32:21;;;;;;;16.45;7.40;;;;;;;;;;4971707;28;20076;-81
2021/12/09 00:34:49;;;;;;;16.48;7.57;;;;;;;;;;4970504;28;20039;-81
2021/12/09 00:37:21;;;;;;;15.73;8.05;;;;;;;;;;4972459;28;20117;-82
2021/12/09 00:39:51;;;;;;;26.38;8.10;;;;;;;;;;4972035;28;20038;-83
2021/12/09 00:42:21;;;;;;;20.63;8.23;;;;;;;;;;4970625;28;20030;-83
2021/12/09 00:44:47;;;;;;;19.97;7.57;;;;;;;;;;4970532;28;20087;-83
2021/12/09 00:47:13;;;;;;;21.08;8.75;;;;;;;;;;4968983;28;20149;-81
2021/12/09 00:49:39;;;;;;;27.27;8.00;;;;;;;;;;4970019;28;20035;-83
2021/12/09 00:52:06;;;;;;;16.92;7.25;;;;;;;;;;4970107;28;20510;-81
2021/12/09 00:54:32;;;;;;;22.40;8.25;;;;;;;;;;4968850;28;20026;-81
2021/12/09 00:56:58;;;;;;;23.05;8.40;;;;;;;;;;4970428;28;20044;-80
2021/12/09 00:59:24;;;;;;;17.67;8.18;;;;;;;;;;4969671;28;20106;-82
2021/12/09 01:01:50;;;;;;;19.02;8.77;;;;;;;;;;4968909;28;20038;-81
2021/12/09 01:04:16;;;;;;;21.63;8.38;;;;;;;;;;4970494;28;20026;-82
2021/12/09 01:06:42;;;;;;;20.92;7.97;;;;;;;;;;4969565;28;20502;-81
2021/12/09 01:09:08;;;;;;;21.73;7.97;;;;;;;;;;4969490;28;20031;-80
2021/12/09 01:11:34;;;;;;;31.27;9.48;;;;;;;;;;4970353;28;20061;-81
2021/12/09 01:14:00;;;;;;;16.17;6.85;;;;;;;;;;4970420;28;20110;-81
2021/12/09 01:16:26;;;;;;;28.20;8.88;;;;;;;;;;4970071;28;20050;-81
2021/12/09 01:18:52;;;;;;;20.10;7.78;;;;;;;;;;4971336;28;20065;-81
2021/12/09 01:21:18;;;;;;;23.05;8.50;;;;;;;;;;4971132;28;20035;-81
2021/12/09 01:23:44;;;;;;;25.65;8.48;;;;;;;;;;4974667;28;20051;-81
2021/12/09 01:26:10;;;;;;;18.63;8.02;;;;;;;;;;4981994;28;20430;-82
2021/12/09 01:31:37;;;;;;;27.00;9.63;;;;;;;;;;4982451;28;20058;-81
2021/12/09 01:34:04;;;;;;;24.05;7.85;;;;;;;;;;4972816;28;20485;-82
2021/12/09 01:36:31;;;;;;;23.33;8.05;;;;;;;;;;4974570;28;20499;-81
2021/12/09 01:38:57;;;;;;;20.45;7.85;;;;;;;;;;4974300;28;20023;-81
2021/12/09 01:41:23;;;;;;;18.13;7.95;;;;;;;;;;4974370;28;20440;-82
2021/12/09 01:43:49;;;;;;;27.58;7.80;;;;;;;;;;4972310;28;20034;-82
2021/12/09 01:46:16;;;;;;;21.98;7.97;;;;;;;;;;4974020;28;20474;-83
2021/12/09 01:48:45;;;;;;;19.15;7.88;;;;;;;;;;4974154;28;20034;-82
2021/12/09 01:51:11;;;;;;;19.02;7.93;;;;;;;;;;4973265;28;20049;-82
2021/12/09 01:53:37;;;;;;;23.08;7.97;;;;;;;;;;4974333;28;20034;-81
2021/12/09 01:56:04;;;;;;;21.58;7.72;;;;;;;;;;4974308;28;20035;-82
2021/12/09 01:58:31;;;;;;;16.23;7.57;;;;;;;;;;4974255;28;20033;-81
2021/12/09 02:00:57;;;;;;;21.58;7.70;;;;;;;;;;4973711;28;20031;-83
2021/12/09 02:03:24;;;;;;;17.20;6.95;;;;;;;;;;4974074;28;20026;-82
2021/12/09 02:05:50;;;;;;;20.13;7.35;;;;;;;;;;4972829;28;20406;-81
2021/12/09 02:08:17;;;;;;;23.67;7.38;;;;;;;;;;4973830;28;20076;-81
2021/12/09 02:10:44;;;;;;;20.60;8.38;;;;;;;;;;4973583;28;20034;-82
2021/12/09 02:13:10;;;;;;;16.83;6.63;;;;;;;;;;4972732;28;20031;-81
2021/12/09 02:15:38;;;;;;;19.73;7.07;;;;;;;;;;4973481;28;20504;-81
2021/12/09 02:18:05;;;;;;;19.05;6.78;;;;;;;;;;4974163;28;20026;-80
2021/12/09 02:20:35;;;;;;;12.00;6.68;;;;;;;;;;4972520;28;20121;-82
2021/12/09 02:23:07;;;;;;;18.20;7.07;;;;;;;;;;4973844;28;20060;-83
2021/12/09 02:25:33;;;;;;;20.23;6.25;;;;;;;;;;4973587;28;20023;-82
2021/12/09 02:27:59;;;;;;;18.35;6.97;;;;;;;;;;4973628;28;20066;-83
2021/12/09 02:30:25;;;;;;;18.20;7.07;;;;;;;;;;4973943;28;20034;-82
2021/12/09 02:32:51;;;;;;;15.43;7.82;;;;;;;;;;4974259;28;20027;-82
2021/12/09 02:35:17;;;;;;;19.20;7.72;;;;;;;;;;4973798;28;20026;-80
2021/12/09 02:37:44;;;;;;;19.48;8.07;;;;;;;;;;4972851;28;20085;-82
2021/12/09 02:40:11;;;;;;;32.70;8.23;;;;;;;;;;4972467;28;20038;-82
2021/12/09 02:42:37;;;;;;;24.38;8.57;;;;;;;;;;4973786;28;20379;-81
2021/12/09 02:45:08;;;;;;;44.38;8.60;;;;;;;;;;4973668;28;20110;-83
2021/12/09 02:47:34;;;;;;;16.52;8.80;;;;;;;;;;4973877;28;20041;-82
2021/12/09 02:50:00;;;;;;;20.80;7.68;;;;;;;;;;4972026;28;20037;-81
2021/12/09 02:52:26;;;;;;;14.52;7.78;;;;;;;;;;4973435;28;20114;-82
2021/12/09 02:54:53;;;;;;;19.70;8.90;;;;;;;;;;4972008;28;20054;-83
2021/12/09 02:57:20;;;;;;;16.55;9.40;;;;;;;;;;4973564;28;20498;-81
2021/12/09 02:59:46;;;;;;;19.92;9.77;;;;;;;;;;4973691;28;20053;-81
2021/12/09 03:02:12;;;;;;;16.45;8.02;;;;;;;;;;4973827;28;20453;-81
2021/12/09 03:04:40;;;;;;;19.25;8.73;;;;;;;;;;4973245;28;20030;-83
2021/12/09 03:07:08;;;;;;;24.27;9.52;;;;;;;;;;4973270;28;20493;-83
2021/12/09 03:09:34;;;;;;;22.77;9.43;;;;;;;;;;4974432;28;20034;-82
2021/12/09 03:12:04;;;;;;;16.13;9.27;;;;;;;;;;4973975;28;20022;-81
2021/12/09 03:14:30;;;;;;;23.58;9.80;;;;;;;;;;4972057;28;20418;-83
2021/12/09 03:16:56;;;;;;;22.88;10.25;;;;;;;;;;4987455;28;20027;-82
2021/12/09 03:19:22;;;;;;;19.60;9.70;;;;;;;;;;4992949;28;20030;-81
2021/12/09 03:21:49;;;;;;;25.52;10.30;;;;;;;;;;4972105;28;20023;-80
2021/12/09 03:24:16;;;;;;;23.58;9.80;;;;;;;;;;4981421;28;20042;-80
2021/12/09 03:26:44;;;;;;;29.23;10.60;;;;;;;;;;4977552;28;20030;-82
2021/12/09 03:29:12;;;;;;;25.95;10.65;;;;;;;;;;4973687;28;20039;-82
2021/12/09 03:31:39;;;;;;;22.55;11.35;;;;;;;;;;4972305;28;20023;-83
2021/12/09 03:34:06;;;;;;;22.45;11.48;;;;;;;;;;4973750;28;20030;-83
2021/12/09 03:36:32;;;;;;;26.88;12.38;;;;;;;;;;4971796;28;20037;-83
2021/12/09 03:38:59;;;;;;;26.70;11.80;;;;;;;;;;4972952;28;20394;-83
2021/12/09 03:41:25;;;;;;;27.73;11.60;;;;;;;;;;4973881;28;20041;-82
2021/12/09 03:43:51;;;;;;;31.60;13.50;;;;;;;;;;4973774;28;20027;-83
2021/12/09 03:46:17;;;;;;;26.35;13.05;;;;;;;;;;4972724;28;20077;-83
2021/12/09 03:48:43;;;;;;;35.53;13.63;;;;;;;;;;4973642;28;20023;-84
2021/12/09 03:51:10;;;;;;;41.95;13.52;;;;;;;;;;4982691;22;20051;-85
2021/12/09 03:53:36;;;;;;;27.67;14.07;;;;;;;;;;4960025;29;20023;-87
2021/12/09 03:56:02;;;;;;;35.55;13.73;;;;;;;;;;4959566;29;20545;-86
2021/12/09 03:58:29;;;;;;;37.83;14.48;;;;;;;;;;4960870;29;20039;-86
2021/12/09 04:00:55;;;;;;;33.08;14.15;;;;;;;;;;4960219;28;20035;-85
2021/12/09 04:03:21;;;;;;;33.78;14.45;;;;;;;;;;4961393;29;20356;-86
2021/12/09 04:05:48;;;;;;;39.42;13.65;;;;;;;;;;4960803;28;20054;-85
2021/12/09 04:08:14;;;;;;;30.25;13.43;;;;;;;;;;4960846;28;20031;-86
2021/12/09 04:10:40;;;;;;;29.52;13.55;;;;;;;;;;4959558;28;20023;-85
2021/12/09 04:13:07;;;;;;;27.02;14.07;;;;;;;;;;4960866;28;20020;-85
2021/12/09 04:15:33;;;;;;;29.38;14.70;;;;;;;;;;4959199;28;20023;-85
2021/12/09 04:17:59;;;;;;;31.30;13.95;;;;;;;;;;4960739;28;20550;-85
2021/12/09 04:20:25;;;;;;;34.88;14.75;;;;;;;;;;4959195;28;20061;-85
2021/12/09 04:22:51;;;;;;;36.80;14.50;;;;;;;;;;4960479;29;20034;-85
2021/12/09 04:25:18;;;;;;;39.28;14.75;;;;;;;;;;4958736;28;20027;-85
2021/12/09 04:27:45;;;;;;;30.70;14.05;;;;;;;;;;4959934;28;20035;-85
2021/12/09 04:30:12;;;;;;;33.80;14.02;;;;;;;;;;4960420;28;20518;-86
2021/12/09 04:32:38;;;;;;;29.05;13.38;;;;;;;;;;4959177;28;20502;-85
2021/12/09 04:35:05;;;;;;;28.00;13.18;;;;;;;;;;4959582;28;20027;-85
2021/12/09 04:37:31;;;;;;;33.20;13.32;;;;;;;;;;4959457;29;20031;-85
2021/12/09 04:39:57;;;;;;;30.30;14.52;;;;;;;;;;4959001;29;20031;-87
2021/12/09 04:42:23;;;;;;;38.80;13.65;;;;;;;;;;4959848;29;20360;-87
2021/12/09 04:44:49;;;;;;;28.10;13.23;;;;;;;;;;4960564;28;20027;-86
2021/12/09 04:47:15;;;;;;;32.88;14.45;;;;;;;;;;4958088;29;20032;-85
2021/12/09 04:49:41;;;;;;;38.10;15.48;;;;;;;;;;4959176;28;20115;-85
2021/12/09 04:52:08;;;;;;;35.40;13.82;;;;;;;;;;4958440;28;20507;-85
2021/12/09 04:54:36;;;;;;;34.08;13.75;;;;;;;;;;4959071;29;20031;-86
2021/12/09 04:57:04;;;;;;;30.30;14.75;;;;;;;;;;4959410;28;20034;-84
2021/12/09 04:59:30;;;;;;;40.58;15.88;;;;;;;;;;4959481;28;20085;-85
2021/12/09 05:01:56;;;;;;;44.92;15.30;;;;;;;;;;4962810;28;20119;-84
2021/12/09 05:04:22;;;;;;;37.25;15.18;;;;;;;;;;4961425;28;20062;-85
2021/12/09 05:06:48;;;;;;;44.65;16.23;;;;;;;;;;4960927;29;20445;-86
2021/12/09 05:09:17;;;;;;;44.60;16.60;;;;;;;;;;4958820;28;20088;-85
2021/12/09 05:14:13;;;;;;;38.92;17.13;;;;;;;;;;4960868;28;20024;-85
2021/12/09 05:16:39;;;;;;;40.47;16.50;;;;;;;;;;4959924;29;20049;-84
2021/12/09 05:19:05;;;;;;;49.13;16.40;;;;;;;;;;4959508;29;20676;-86
2021/12/09 05:21:36;;;;;;;33.28;15.13;;;;;;;;;;4960666;29;20028;-84
2021/12/09 05:24:02;;;;;;;;;;;;;;;;;;4961149;29;20497;-87
2021/12/09 05:26:33;;;;;;;40.05;14.35;;;;;;;;;;4960863;28;19910;-87
2021/12/09 05:28:59;;;;;;;37.22;13.77;;;;;;;;;;4957081;29;20032;-87
2021/12/09 05:34:15;;;;;;;36.30;14.40;;;;;;;;;;4959558;29;20038;-84
2021/12/09 05:36:41;;;;;;;37.90;16.00;;;;;;;;;;4959237;29;20478;-84
2021/12/09 05:39:08;;;;;;;40.03;15.40;;;;;;;;;;4959334;29;20030;-84
2021/12/09 05:41:34;;;;;;;37.53;16.83;;;;;;;;;;4957264;28;20457;-86
2021/12/09 05:44:01;;;;;;;40.53;16.80;;;;;;;;;;4958245;28;20544;-84
2021/12/09 05:46:27;;;;;;;49.25;17.85;;;;;;;;;;4959088;28;20035;-84
2021/12/09 05:48:53;;;;;;;33.83;16.25;;;;;;;;;;4958269;28;20104;-83
2021/12/09 05:51:22;;;;;;;44.00;18.67;;;;;;;;;;4958626;28;20430;-85
2021/12/09 05:53:48;;;;;;;44.10;18.00;;;;;;;;;;4957381;28;20027;-86
2021/12/09 05:56:14;;;;;;;43.13;16.48;;;;;;;;;;4964106;28;20102;-86
2021/12/09 05:58:40;;;;;;;36.03;15.48;;;;;;;;;;4971985;28;20043;-85
2021/12/09 06:01:06;;;;;;;46.80;17.73;;;;;;;;;;4957507;28;20019;-85
2021/12/09 06:03:33;;;;;;;46.53;18.80;;;;;;;;;;4958525;28;20102;-84
2021/12/09 06:05:59;;;;;;;47.97;19.10;;;;;;;;;;4958114;28;20047;-84
2021/12/09 06:08:26;;;;;;;47.20;19.80;;;;;;;;;;4958787;28;20497;-84
2021/12/09 06:10:52;;;;;;;38.30;17.42;;;;;;;;;;5040265;28;20022;-86
2021/12/09 06:13:18;;;;;;;41.85;17.08;;;;;;;;;;5039016;28;20477;-82
2021/12/09 06:15:44;;;;;;;38.33;16.33;;;;;;;;;;5010317;28;20042;-86
2021/12/09 06:18:10;;;;;;;43.90;15.40;;;;;;;;;;4977472;28;20058;-87
2021/12/09 06:20:37;;;;;;;42.08;16.88;;;;;;;;;;4976686;28;20027;-85
2021/12/09 06:23:03;;;;;;;38.03;15.65;;;;;;;;;;4976960;29;20036;-87
2021/12/09 06:25:30;;;;;;;41.65;15.18;;;;;;;;;;4975949;28;20055;-84
2021/12/09 06:27:57;;;;;;;53.67;17.40;;;;;;;;;;4975954;29;20027;-85
2021/12/09 06:30:23;;;;;;;48.45;16.48;;;;;;;;;;4976419;28;20087;-86
2021/12/09 06:32:49;;;;;;;43.72;15.52;;;;;;;;;;4965057;28;20038;-86
2021/12/09 06:35:15;;;;;;;41.55;13.65;;;;;;;;;;4962552;29;20027;-85
2021/12/09 06:37:44;;;;;;;40.40;15.30;;;;;;;;;;4963710;28;20028;-86
2021/12/09 06:40:13;;;;;;;48.55;16.33;;;;;;;;;;4960166;28;20046;-85
2021/12/09 06:42:39;;;;;;;42.63;15.32;;;;;;;;;;4959521;29;20031;-83
2021/12/09 06:45:05;;;;;;;47.10;14.77;;;;;;;;;;4958475;29;20395;-85
2021/12/09 06:47:31;;;;;;;48.50;17.52;;;;;;;;;;4957747;28;20475;-85
2021/12/09 06:49:57;;;;;;;54.08;16.70;;;;;;;;;;4959020;29;20023;-85
2021/12/09 06:52:23;;;;;;;40.72;16.23;;;;;;;;;;4957673;28;20039;-84
2021/12/09 06:54:49;;;;;;;52.55;18.75;;;;;;;;;;4957909;28;20030;-84
2021/12/09 06:57:15;;;;;;;48.83;16.27;;;;;;;;;;4958602;29;20106;-83
2021/12/09 06:59:41;;;;;;;50.67;17.35;;;;;;;;;;4960753;28;20034;-85
2021/12/09 07:02:08;;;;;;;58.97;16.27;;;;;;;;;;4972293;28;20027;-89
2021/12/09 07:04:34;;;;;;;49.33;17.23;;;;;;;;;;4960020;29;20039;-85
2021/12/09 07:07:00;;;;;;;49.70;17.13;;;;;;;;;;4958511;29;20038;-88
2021/12/09 07:09:30;;;;;;;45.90;17.15;;;;;;;;;;4959626;29;20037;-85
2021/12/09 07:11:57;;;;;;;46.47;16.30;;;;;;;;;;4959301;28;20024;-85
2021/12/09 07:14:23;;;;;;;46.38;17.50;;;;;;;;;;4957129;29;20034;-85
2021/12/09 07:16:49;;;;;;;40.05;15.88;;;;;;;;;;4956722;28;20049;-84
2021/12/09 07:19:15;;;;;;;37.63;15.95;;;;;;;;;;4958201;29;20027;-84
2021/12/09 07:21:41;;;;;;;40.38;15.38;;;;;;;;;;4956353;28;20031;-86
2021/12/09 07:24:07;;;;;;;44.38;16.90;;;;;;;;;;4957659;29;20034;-84
2021/12/09 07:26:33;;;;;;;42.13;17.48;;;;;;;;;;4959625;29;20031;-85
2021/12/09 07:28:59;;;;;;;43.50;18.15;;;;;;;;;;4959758;29;20487;-85
2021/12/09 07:31:26;;;;;;;39.97;17.05;;;;;;;;;;4958047;28;20027;-84
2021/12/09 07:33:52;;;;;;;45.70;16.73;;;;;;;;;;4959457;29;20031;-84
2021/12/09 07:36:18;;;;;;;43.20;17.38;;;;;;;;;;4958209;29;20031;-83
2021/12/09 07:38:46;;;;;;;32.90;16.15;;;;;;;;;;4959380;29;20106;-85
2021/12/09 07:41:15;;;;;;;33.60;16.15;;;;;;;;;;4960300;28;20027;-84
2021/12/09 07:43:41;;;;;;;42.28;15.60;;;;;;;;;;4959360;29;20036;-84
2021/12/09 07:46:43;;;;;;;46.83;18.05;;;;;;;;;;4962450;28;20035;-84
2021/12/09 07:52:12;;;;;;;53.13;17.77;;;;;;;;;;4975164;28;20065;-84
2021/12/09 07:54:38;;;;;;;51.50;18.55;;;;;;;;;;4976892;28;20041;-85
2021/12/09 07:57:10;;;;;;;45.95;17.10;;;;;;;;;;4977258;28;20022;-87
2021/12/09 07:59:42;;;;;;;48.33;18.52;;;;;;;;;;4977044;28;20035;-86
2021/12/09 08:02:11;;;;;;;83.03;18.98;;;;;;;;;;4976992;28;20019;-86
2021/12/09 08:04:40;;;;;;;74.75;18.42;;;;;;;;;;4976206;28;20043;-86
2021/12/09 08:07:09;;;;;;;38.05;18.08;;;;;;;;;;4976341;28;20019;-87
2021/12/09 08:09:35;;;;;;;97.85;20.05;;;;;;;;;;4976121;28;20053;-87
2021/12/09 08:12:01;;;;;;;69.75;19.83;;;;;;;;;;4976715;28;20057;-85
2021/12/09 08:14:37;;;;;;;98.40;19.35;;;;;;;;;;4976219;28;20030;-86
2021/12/09 08:17:34;;;;;;;70.80;18.77;;;;;;;;;;4977721;28;20105;-87
2021/12/09 08:19:59;;;;;;;68.13;18.70;;;;;;;;;;4977413;28;20035;-86
2021/12/09 08:22:25;;;;;;;72.95;19.38;;;;;;;;;;4976018;28;20020;-87
2021/12/09 08:24:55;;;;;;;62.33;18.85;;;;;;;;;;4977367;28;20046;-87
2021/12/09 08:27:21;;;;;;;53.63;18.23;;;;;;;;;;4976859;28;20015;-88
2021/12/09 08:29:47;;;;;;;46.40;18.08;;;;;;;;;;4976948;28;20039;-87
2021/12/09 08:32:13;;;;;;;58.03;16.48;;;;;;;;;;4976416;28;20044;-86
2021/12/09 08:34:40;;;;;;;41.08;17.75;;;;;;;;;;4976198;28;20020;-85
2021/12/09 08:37:06;;;;;;;58.40;18.38;;;;;;;;;;4977085;28;20031;-85
2021/12/09 08:39:32;;;;;;;46.05;17.35;;;;;;;;;;4976250;28;20023;-87
2021/12/09 08:44:50;;;;;;;38.45;16.83;;;;;;;;;;5957945;22;20022;-85
2021/12/09 08:52:27;;;;;;;34.97;16.08;;;;;;;;;;5240276;22;20057;-89
2021/12/09 09:02:59;;;;;;;27.00;14.18;;;;;;;;;;5567456;22;20096;-89
2021/12/09 09:18:24;;;;;;;31.33;14.13;;;;;;;;;;5562479;22;20035;-88
2021/12/09 09:23:26;;;;;;;33.05;14.10;;;;;;;;;;5673571;22;20085;-91
2021/12/09 09:25:52;;;;;;;31.58;14.20;;;;;;;;;;4976835;28;20008;-91
2021/12/09 09:28:19;;;;;;;35.15;14.73;;;;;;;;;;4992301;28;20034;-87
2021/12/09 09:30:52;;;;;;;27.77;13.25;;;;;;;;;;4992283;28;20041;-92
2021/12/09 09:33:18;;;;;;;32.58;13.20;;;;;;;;;;5073368;28;20010;-89
2021/12/09 09:35:45;;;;;;;41.22;12.98;;;;;;;;;;5057768;28;20073;-89
2021/12/09 09:38:11;;;;;;;27.45;13.27;;;;;;;;;;5055013;28;20015;-86
2021/12/09 09:41:04;;;;;;;30.20;13.32;;;;;;;;;;4957386;28;20019;-90
2021/12/09 09:43:44;;;;;;;29.90;13.05;;;;;;;;;;5341684;22;20043;-89
2021/12/09 09:46:11;;;;;;;36.70;13.00;;;;;;;;;;4996504;28;20021;-90
2021/12/09 09:48:39;;;;;;;31.20;14.38;;;;;;;;;;4999282;28;20078;-87
2021/12/09 09:51:05;;;;;;;36.00;14.50;;;;;;;;;;4998521;28;20011;-91
2021/12/09 09:53:32;;;;;;;30.52;14.70;;;;;;;;;;4999033;28;20033;-89
2021/12/09 09:55:58;;;;;;;34.25;15.05;;;;;;;;;;5036208;22;20053;-79
2021/12/09 09:58:25;;;;;;;30.10;15.13;;;;;;;;;;5008639;28;20030;-79
2021/12/09 10:00:51;;;;;;;30.42;12.77;;;;;;;;;;5007822;28;20030;-79
2021/12/09 10:03:18;;;;;;;34.55;14.40;;;;;;;;;;5017497;28;20022;-80
2021/12/09 10:05:48;;;;;;;25.30;12.23;;;;;;;;;;5079744;28;20007;-79
2021/12/09 10:08:15;;;;;;;33.20;13.57;;;;;;;;;;5099503;28;20033;-80
2021/12/09 10:10:42;;;;;;;30.45;12.02;;;;;;;;;;5092843;28;20028;-80
2021/12/09 10:13:09;;;;;;;28.48;11.95;;;;;;;;;;5096052;28;20081;-79
2021/12/09 10:15:38;;;;;;;31.65;11.30;;;;;;;;;;5081176;28;20031;-81
2021/12/09 10:18:04;;;;;;;24.63;11.25;;;;;;;;;;5080300;28;20056;-78
2021/12/09 10:20:44;;;;;;;25.58;11.27;;;;;;;;;;5080714;28;20127;-78
2021/12/09 10:23:29;;;;;;;29.55;10.68;;;;;;;;;;5095318;28;20058;-81
2021/12/09 10:26:30;;;;;;;29.98;10.13;;;;;;;;;;5106327;28;20024;-81
2021/12/09 10:29:03;;;;;;;35.03;11.68;;;;;;;;;;4994473;28;20104;-79
2021/12/09 10:31:33;;;;;;;32.78;11.70;;;;;;;;;;5080765;28;20036;-79
2021/12/09 10:36:57;;;;;;;31.33;10.75;;;;;;;;;;5082019;28;20117;-80
2021/12/09 10:39:26;;;;;;;30.38;12.10;;;;;;;;;;5101650;28;20087;-79
2021/12/09 10:41:52;;;;;;;26.63;10.77;;;;;;;;;;5093559;28;20415;-79
2021/12/09 10:44:29;;;;;;;26.60;10.45;;;;;;;;;;5085138;28;20175;-78
2021/12/09 10:47:05;;;;;;;29.90;12.02;;;;;;;;;;5082035;28;20082;-81
2021/12/09 10:49:39;;;;;;;26.45;11.50;;;;;;;;;;5089607;28;20097;-80
2021/12/09 10:52:27;;;;;;;30.02;10.95;;;;;;;;;;5098531;28;20438;-79
2021/12/09 10:54:54;;;;;;;34.03;11.43;;;;;;;;;;5100437;28;20031;-82
2021/12/09 10:57:24;;;;;;;31.40;11.18;;;;;;;;;;5101148;28;20035;-82
2021/12/09 10:59:50;;;;;;;23.90;10.43;;;;;;;;;;5101288;28;20061;-82
2021/12/09 11:02:17;;;;;;;34.00;12.35;;;;;;;;;;5104156;28;20154;-82
2021/12/09 11:04:57;;;;;;;31.52;11.90;;;;;;;;;;5100489;28;20043;-80
2021/12/09 11:07:31;;;;;;;28.50;13.15;;;;;;;;;;5098655;28;20054;-81
2021/12/09 11:10:17;;;;;;;24.85;10.52;;;;;;;;;;5096940;28;20487;-80
2021/12/09 11:12:54;;;;;;;22.70;11.70;;;;;;;;;;5090464;28;20028;-80
2021/12/09 11:15:21;;;;;;;45.50;12.75;;;;;;;;;;5097003;28;20055;-82
2021/12/09 11:17:50;;;;;;;27.27;11.20;;;;;;;;;;5100702;28;20036;-81
2021/12/09 11:20:46;;;;;;;25.08;11.02;;;;;;;;;;5111988;28;20030;-81
2021/12/09 11:23:25;;;;;;;28.55;10.77;;;;;;;;;;5090507;28;20028;-82
2021/12/09 11:25:51;;;;;;;24.65;9.63;;;;;;;;;;5107222;28;20107;-82
2021/12/09 11:28:17;;;;;;;31.40;10.30;;;;;;;;;;5106689;28;20113;-80
2021/12/09 11:31:17;;;;;;;28.73;9.48;;;;;;;;;;5107138;28;20024;-80
2021/12/09 11:33:45;;;;;;;27.45;10.20;;;;;;;;;;5084985;28;20028;-81
2021/12/09 11:36:17;;;;;;;22.58;9.88;;;;;;;;;;5107120;28;20020;-82
2021/12/09 11:39:06;;;;;;;27.17;9.38;;;;;;;;;;5106647;28;20388;-81
2021/12/09 11:41:35;;;;;;;23.80;9.88;;;;;;;;;;5103864;28;20035;-79
2021/12/09 11:44:01;;;;;;;32.22;9.55;;;;;;;;;;5103707;28;20020;-80
2021/12/09 11:46:27;;;;;;;34.10;9.65;;;;;;;;;;5103289;28;20081;-80
2021/12/09 11:48:54;;;;;;;21.40;8.82;;;;;;;;;;5101894;28;20380;-79
2021/12/09 11:51:21;;;;;;;18.92;9.20;;;;;;;;;;5097945;28;20118;-79
2021/12/09 11:53:54;;;;;;;24.70;8.93;;;;;;;;;;5099297;28;20028;-79
2021/12/09 11:56:31;;;;;;;29.13;8.07;;;;;;;;;;5086637;28;20032;-78
2021/12/09 12:07:44;;;;;;;17.95;6.68;;;;;;;;;;5097616;28;20097;-79
2021/12/09 12:13:00;;;;;;;14.40;7.15;;;;;;;;;;5093948;28;20074;-77
2021/12/09 12:15:44;;;;;;;25.10;6.80;;;;;;;;;;5084067;28;20111;-79
2021/12/09 12:21:07;;;;;;;23.63;6.88;;;;;;;;;;5100456;28;20035;-81
2021/12/09 12:23:47;;;;;;;27.00;6.38;;;;;;;;;;5100369;28;20024;-83
2021/12/09 12:29:48;;;;;;;15.55;6.43;;;;;;;;;;5095419;28;20032;-79
2021/12/09 12:33:00;;;;;;;23.50;7.13;;;;;;;;;;5089373;28;20103;-79
2021/12/09 12:40:12;;;;;;;16.98;5.72;;;;;;;;;;5101473;28;20024;-80
2021/12/09 12:42:47;;;;;;;13.50;5.68;;;;;;;;;;5095988;28;20085;-80
2021/12/09 12:57:26;;;;;;;17.73;5.05;;;;;;;;;;4982052;28;20082;-81
2021/12/09 13:00:36;;;;;;;16.50;5.28;;;;;;;;;;4981053;28;20080;-82
2021/12/09 13:03:14;;;;;;;32.95;5.38;;;;;;;;;;4981293;28;20069;-81
2021/12/09 13:08:44;;;;;;;16.80;5.72;;;;;;;;;;4979666;28;20042;-81
2021/12/09 13:11:37;;;;;;;13.68;5.45;;;;;;;;;;4979275;28;20395;-80
2021/12/09 13:15:01;;;;;;;25.60;5.72;;;;;;;;;;4958191;28;20020;-81
2021/12/09 13:18:30;;;;;;;;;;;;;;;;;;;;;
2021/12/09 13:20:33;;;;;;;17.50;4.85;;;;;;;;;;4952506;28;20027;-84
2021/12/09 13:23:26;;;;;;;15.98;5.47;;;;;;;;;;4970214;28;20147;-81
2021/12/09 13:26:12;;;;;;;18.67;5.47;;;;;;;;;;4979091;28;20062;-83
2021/12/09 13:28:42;;;;;;;17.25;5.80;;;;;;;;;;4980760;28;20083;-82
2021/12/09 13:31:31;;;;;;;24.75;6.07;;;;;;;;;;4979839;28;20042;-81
2021/12/09 13:34:13;;;;;;;27.00;6.20;;;;;;;;;;4973012;28;20026;-81
2021/12/09 13:36:53;;;;;;;20.17;5.40;;;;;;;;;;4973137;28;20027;-80
2021/12/09 13:47:48;;;;;;;19.58;4.85;;;;;;;;;;4983149;28;20046;-80
2021/12/09 13:50:49;;;;;;;20.27;5.30;;;;;;;;;;4981559;28;20134;-82
2021/12/09 13:56:00;;;;;;;23.17;5.70;;;;;;;;;;4982055;28;20042;-79
2021/12/09 13:58:26;;;;;;;12.40;3.95;;;;;;;;;;4980710;28;20442;-79
2021/12/09 14:00:52;;;;;;;11.88;4.28;;;;;;;;;;4976801;28;20041;-80
2021/12/09 14:03:20;;;;;;;18.67;4.60;;;;;;;;;;4975415;28;20029;-82
2021/12/09 14:05:55;;;;;;;29.48;5.25;;;;;;;;;;4974081;28;20659;-80
2021/12/09 14:08:46;;;;;;;12.57;3.92;;;;;;;;;;4975132;28;20019;-78
2021/12/09 14:11:20;;;;;;;19.58;4.38;;;;;;;;;;4975254;28;20556;-80
2021/12/09 14:13:57;;;;;;;15.93;4.45;;;;;;;;;;4977887;28;20023;-79
2021/12/09 14:16:37;;;;;;;16.00;5.13;;;;;;;;;;4980605;28;20041;-81
2021/12/09 14:21:37;;;;;;;13.98;4.72;;;;;;;;;;4978756;28;20350;-80
2021/12/09 14:24:14;;;;;;;15.70;4.07;;;;;;;;;;4975903;28;20098;-80
2021/12/09 14:26:41;;;;;;;8.57;3.55;;;;;;;;;;4995110;28;20386;-82
2021/12/09 14:29:07;;;;;;;15.55;4.68;;;;;;;;;;4976401;28;20035;-82
2021/12/09 14:31:44;;;;;;;10.52;3.75;;;;;;;;;;4978186;28;20094;-80
2021/12/09 14:34:10;;;;;;;15.65;4.50;;;;;;;;;;4977506;28;20045;-84
2021/12/09 14:36:37;;;;;;;14.98;3.60;;;;;;;;;;4976700;28;20038;-81
2021/12/09 14:39:07;;;;;;;17.38;4.15;;;;;;;;;;4978600;28;20102;-79
2021/12/09 14:41:34;;;;;;;19.48;4.07;;;;;;;;;;4978916;28;20852;-80
2021/12/09 14:44:02;;;;;;;13.88;3.97;;;;;;;;;;4976794;28;20474;-80
2021/12/09 14:46:34;;;;;;;17.48;4.55;;;;;;;;;;4972178;28;20046;-81
2021/12/09 14:49:03;;;;;;;14.50;3.55;;;;;;;;;;4974273;28;20035;-80
2021/12/09 14:51:30;;;;;;;12.73;3.70;;;;;;;;;;4973242;28;20038;-80
2021/12/09 14:54:02;;;;;;;11.32;3.78;;;;;;;;;;4990486;28;20084;-81
2021/12/09 14:56:42;;;;;;;8.57;3.58;;;;;;;;;;4983420;28;20470;-81
2021/12/09 14:59:14;;;;;;;12.40;3.00;;;;;;;;;;4981091;28;20117;-83
2021/12/09 15:01:40;;;;;;;8.25;2.97;;;;;;;;;;4983071;28;20379;-81
2021/12/09 15:04:14;;;;;;;11.70;3.38;;;;;;;;;;4980287;28;20033;-80
2021/12/09 15:06:44;;;;;;;16.25;3.53;;;;;;;;;;4982172;28;20568;-81
2021/12/09 15:09:15;;;;;;;13.48;3.72;;;;;;;;;;4983018;28;20039;-81
2021/12/09 15:11:42;;;;;;;18.05;4.10;;;;;;;;;;4982648;28;20391;-80
2021/12/09 15:14:15;;;;;;;10.90;4.20;;;;;;;;;;4983185;28;20109;-80
2021/12/09 15:16:41;;;;;;;15.90;3.10;;;;;;;;;;4981356;28;20027;-81
2021/12/09 15:19:18;;;;;;;6.93;3.67;;;;;;;;;;4990662;28;20079;-83
2021/12/09 15:21:44;;;;;;;10.45;3.03;;;;;;;;;;4986854;28;20046;-83
2021/12/09 15:24:11;;;;;;;11.70;3.42;;;;;;;;;;4983728;28;20484;-82
2021/12/09 15:26:39;;;;;;;11.52;3.90;;;;;;;;;;4981840;28;20037;-81
2021/12/09 15:29:05;;;;;;;9.13;3.35;;;;;;;;;;4982819;28;20121;-81
2021/12/09 15:31:32;;;;;;;7.22;2.95;;;;;;;;;;4983478;28;20045;-83
2021/12/09 15:34:04;;;;;;;13.18;3.35;;;;;;;;;;4981521;28;20050;-83
2021/12/09 15:36:32;;;;;;;9.70;3.10;;;;;;;;;;4982475;28;20109;-82
2021/12/09 15:38:58;;;;;;;9.02;3.55;;;;;;;;;;4984203;28;20038;-80
2021/12/09 15:41:26;;;;;;;14.57;3.17;;;;;;;;;;4984772;28;20344;-80
2021/12/09 15:43:53;;;;;;;5.57;3.08;;;;;;;;;;4983966;28;20471;-82
2021/12/09 15:46:20;;;;;;;9.00;3.58;;;;;;;;;;4984020;28;20114;-80
2021/12/09 15:48:46;;;;;;;14.50;2.95;;;;;;;;;;4981098;28;20030;-80
2021/12/09 15:51:15;;;;;;;9.75;3.22;;;;;;;;;;4982495;28;20039;-82
2021/12/09 15:53:48;;;;;;;12.52;3.25;;;;;;;;;;4982891;28;20031;-82
2021/12/09 15:56:15;;;;;;;4.05;2.90;;;;;;;;;;5044803;23;20490;-82
2021/12/09 15:58:41;;;;;;;11.40;3.40;;;;;;;;;;4951329;28;20114;-81
2021/12/09 16:01:08;;;;;;;12.88;3.25;;;;;;;;;;4961619;28;20041;-83
2021/12/09 16:03:34;;;;;;;11.40;3.40;;;;;;;;;;4956304;28;20031;-82
2021/12/09 16:06:01;;;;;;;9.90;2.88;;;;;;;;;;4957031;28;20023;-81
2021/12/09 16:08:27;;;;;;;12.25;3.47;;;;;;;;;;4955537;29;20060;-82
2021/12/09 16:10:53;;;;;;;25.52;9.35;;;;;;;;;;4966970;28;20030;-78
2021/12/09 16:13:19;;;;;;;12.73;4.25;;;;;;;;;;4949484;28;20555;-79
2021/12/09 16:15:56;;;;;;;32.67;14.98;;;;;;;;;;4978338;28;20019;-82